Time,TemperatureF,DewpointF,PressureIn,WindDirection,WindDirectionDegrees,WindSpeedMPH,WindSpeedGustMPH,Humidity,HourlyPrecipIn,Conditions,Clouds,dailyrainin,SoftwareType,DateUTC
2013-02-13 00:02:00,53.6,54.0,29.78,WSW,246,1.0,1.0,100,0.00,,,0.00,weatherlink.com 1.10,2013-02-13 06:02:00,
2013-02-13 00:17:00,53.7,54.0,29.77,East,86,0.0,1.0,100,0.00,,,0.00,weatherlink.com 1.10,2013-02-13 06:17:00,
2013-02-13 00:32:00,53.8,54.0,29.77,ESE,119,0.0,0.0,100,0.00,,,0.00,weatherlink.com 1.10,2013-02-13 06:32:00,
2013-02-13 00:47:00,53.9,54.0,29.76,East,86,0.0,2.0,100,0.00,,,0.00,weatherlink.com 1.10,2013-02-13 06:47:00,
2013-02-13 01:02:00,53.9,54.0,29.77,East,88,0.0,2.0,100,0.00,,,0.00,weatherlink.com 1.10,2013-02-13 07:02:00,
2013-02-13 01:17:00,53.9,54.0,29.76,East,82,1.0,3.0,100,0.00,,,0.00,weatherlink.com 1.10,2013-02-13 07:17:00,
2013-02-13 01:32:00,54.1,54.0,29.76,East,82,0.0,2.0,100,0.00,,,0.00,weatherlink.com 1.10,2013-02-13 07:32:00,
2013-02-13 01:47:00,54.3,54.0,29.76,ESE,103,0.0,1.0,100,0.00,,,0.00,weatherlink.com 1.10,2013-02-13 07:47:00,
2013-02-13 02:02:00,54.3,54.0,29.75,ESE,103,0.0,0.0,100,0.00,,,0.00,weatherlink.com 1.10,2013-02-13 08:02:00,
2013-02-13 02:17:00,54.5,55.0,29.76,East,92,0.0,1.0,100,0.00,,,0.00,weatherlink.com 1.10,2013-02-13 08:17:00,
2013-02-13 02:32:00,54.9,55.0,29.76,SE,124,0.0,1.0,100,0.00,,,0.00,weatherlink.com 1.10,2013-02-13 08:32:00,
2013-02-13 02:47:00,55.1,55.0,29.76,SE,124,0.0,1.0,100,0.00,,,0.00,weatherlink.com 1.10,2013-02-13 08:47:00,
2013-02-13 03:02:00,56.1,56.0,29.76,NNW,328,0.0,1.0,100,0.00,,,0.00,weatherlink.com 1.10,2013-02-13 09:02:00,
2013-02-13 03:17:00,57.0,57.0,29.77,SW,233,0.0,4.0,100,0.00,,,0.00,weatherlink.com 1.10,2013-02-13 09:17:00,
2013-02-13 03:32:00,57.2,57.0,29.78,WSW,245,0.0,5.0,100,0.00,,,0.00,weatherlink.com 1.10,2013-02-13 09:32:00,
2013-02-13 03:47:00,57.4,57.0,29.78,West,272,1.0,4.0,100,0.00,,,0.00,weatherlink.com 1.10,2013-02-13 09:47:00,
2013-02-13 04:02:00,58.3,58.0,29.80,ESE,115,5.0,14.0,100,0.00,,,0.00,weatherlink.com 1.10,2013-02-13 10:02:00,
2013-02-13 04:17:00,58.4,58.0,29.80,NE,54,0.0,7.0,100,0.00,,,0.00,weatherlink.com 1.10,2013-02-13 10:17:00,
2013-02-13 04:32:00,57.4,57.0,29.81,WNW,287,2.0,8.0,100,0.00,,,0.00,weatherlink.com 1.10,2013-02-13 10:32:00,
2013-02-13 04:47:00,56.2,56.0,29.81,SE,132,2.0,6.0,98,0.00,,,0.00,weatherlink.com 1.10,2013-02-13 10:47:00,
2013-02-13 05:03:00,55.3,55.0,29.82,SW,225,0.0,5.0,98,0.00,,,0.00,weatherlink.com 1.10,2013-02-13 11:03:00,
2013-02-13 05:18:00,54.6,54.0,29.82,WSW,239,1.0,2.0,99,0.00,,,0.00,weatherlink.com 1.10,2013-02-13 11:18:00,
2013-02-13 05:33:00,54.0,54.0,29.82,SW,232,1.0,5.0,99,0.00,,,0.00,weatherlink.com 1.10,2013-02-13 11:33:00,
2013-02-13 05:48:00,53.5,53.0,29.83,SW,221,1.0,3.0,99,0.00,,,0.00,weatherlink.com 1.10,2013-02-13 11:48:00,
2013-02-13 06:03:00,53.0,53.0,29.84,South,183,0.0,3.0,99,0.00,,,0.00,weatherlink.com 1.10,2013-02-13 12:03:00,
2013-02-13 06:18:00,52.5,52.0,29.83,SE,138,0.0,1.0,99,0.00,,,0.00,weatherlink.com 1.10,2013-02-13 12:18:00,
2013-02-13 06:48:00,52.0,52.0,29.84,SW,219,0.0,1.0,99,0.00,,,0.00,weatherlink.com 1.10,2013-02-13 12:48:00,
2013-02-13 07:03:00,52.6,52.0,29.85,ESE,105,1.0,1.0,99,0.00,,,0.00,weatherlink.com 1.10,2013-02-13 13:03:00,
2013-02-13 07:18:00,53.1,53.0,29.85,WNW,295,2.0,2.0,99,0.00,,,0.00,weatherlink.com 1.10,2013-02-13 13:18:00,
2013-02-13 07:33:00,53.3,53.0,29.87,SSW,210,0.0,5.0,99,0.00,,,0.00,weatherlink.com 1.10,2013-02-13 13:33:00,
2013-02-13 07:48:00,53.3,53.0,29.88,WSW,257,0.0,5.0,99,0.00,,,0.00,weatherlink.com 1.10,2013-02-13 13:48:00,
2013-02-13 08:03:00,53.3,53.0,29.90,NNE,18,1.0,7.0,99,0.00,,,0.00,weatherlink.com 1.10,2013-02-13 14:03:00,
2013-02-13 08:18:00,53.3,53.0,29.89,NW,322,5.0,8.0,98,0.00,,,0.00,weatherlink.com 1.10,2013-02-13 14:18:00,
2013-02-13 08:33:00,53.7,53.0,29.89,WNW,289,2.0,5.0,97,0.00,,,0.00,weatherlink.com 1.10,2013-02-13 14:33:00,
2013-02-13 08:48:00,54.1,53.0,29.88,WNW,288,0.0,9.0,96,0.01,,,0.01,weatherlink.com 1.10,2013-02-13 14:48:00,
2013-02-13 09:03:00,54.1,53.0,29.86,NW,304,5.0,9.0,94,0.01,,,0.01,weatherlink.com 1.10,2013-02-13 15:03:00,
2013-02-13 09:18:00,54.9,53.0,29.86,NW,311,4.0,8.0,92,0.01,,,0.01,weatherlink.com 1.10,2013-02-13 15:18:00,
2013-02-13 09:33:00,54.4,52.0,29.88,West,271,3.0,8.0,91,0.01,,,0.01,weatherlink.com 1.10,2013-02-13 15:33:00,
2013-02-13 09:48:00,54.5,52.0,29.89,WNW,288,2.0,9.0,92,0.00,,,0.01,weatherlink.com 1.10,2013-02-13 15:48:00,
2013-02-13 10:03:00,54.2,51.0,29.91,WNW,300,1.0,9.0,90,0.00,,,0.01,weatherlink.com 1.10,2013-02-13 16:03:00,
2013-02-13 10:18:00,54.2,51.0,29.89,WNW,300,3.0,9.0,90,0.00,,,0.01,weatherlink.com 1.10,2013-02-13 16:18:00,
2013-02-13 10:33:00,53.2,50.0,29.89,WNW,303,2.0,11.0,89,0.00,,,0.01,weatherlink.com 1.10,2013-02-13 16:33:00,
2013-02-13 10:48:00,53.5,50.0,29.89,West,279,0.0,10.0,86,0.00,,,0.01,weatherlink.com 1.10,2013-02-13 16:48:00,
2013-02-13 11:03:00,54.0,50.0,29.91,West,262,2.0,8.0,85,0.00,,,0.01,weatherlink.com 1.10,2013-02-13 17:03:00,
2013-02-13 11:18:00,53.5,49.0,29.92,WSW,252,3.0,10.0,85,0.00,,,0.01,weatherlink.com 1.10,2013-02-13 17:18:00,
2013-02-13 11:33:00,52.9,50.0,29.90,WNW,300,0.0,7.0,89,0.00,,,0.01,weatherlink.com 1.10,2013-02-13 17:33:00,
2013-02-13 11:48:00,52.5,49.0,29.91,North,350,2.0,6.0,88,0.00,,,0.01,weatherlink.com 1.10,2013-02-13 17:48:00,
2013-02-13 12:03:00,52.5,50.0,29.90,WNW,297,1.0,7.0,91,0.00,,,0.01,weatherlink.com 1.10,2013-02-13 18:03:00,
2013-02-13 12:33:00,51.8,50.0,29.90,WSW,242,0.0,6.0,92,0.01,,,0.02,weatherlink.com 1.10,2013-02-13 18:33:00,
2013-02-13 13:03:00,50.2,49.0,29.91,WSW,252,1.0,2.0,96,0.04,,,0.05,weatherlink.com 1.10,2013-02-13 19:03:00,
2013-02-13 13:18:00,49.6,49.0,29.89,WNW,302,3.0,4.0,96,0.07,,,0.08,weatherlink.com 1.10,2013-02-13 19:18:00,
2013-02-13 13:33:00,49.2,48.0,29.89,SW,236,0.0,3.0,97,0.10,,,0.12,weatherlink.com 1.10,2013-02-13 19:33:00,
2013-02-13 13:48:00,48.8,48.0,29.91,WSW,244,10.0,17.0,96,0.13,,,0.17,weatherlink.com 1.10,2013-02-13 19:48:00,
2013-02-13 14:03:00,47.2,46.0,29.92,NW,315,0.0,9.0,96,0.17,,,0.22,weatherlink.com 1.10,2013-02-13 20:03:00,
2013-02-13 14:18:00,47.0,47.0,29.93,NW,319,2.0,8.0,98,0.14,,,0.23,weatherlink.com 1.10,2013-02-13 20:18:00,
2013-02-13 14:33:00,46.8,46.0,29.92,NNW,338,1.0,5.0,98,0.12,,,0.24,weatherlink.com 1.10,2013-02-13 20:33:00,
2013-02-13 14:48:00,46.8,46.0,29.90,NE,49,2.0,4.0,98,0.09,,,0.26,weatherlink.com 1.10,2013-02-13 20:48:00,
2013-02-13 15:03:00,46.8,46.0,29.93,West,264,1.0,4.0,98,0.05,,,0.27,weatherlink.com 1.10,2013-02-13 21:03:00,
2013-02-13 15:19:00,46.6,46.0,29.92,SW,236,1.0,5.0,98,0.04,,,0.27,weatherlink.com 1.10,2013-02-13 21:19:00,
2013-02-13 15:34:00,46.5,46.0,29.93,West,276,0.0,6.0,98,0.03,,,0.27,weatherlink.com 1.10,2013-02-13 21:34:00,
2013-02-13 15:49:00,46.5,46.0,29.93,West,267,1.0,4.0,98,0.01,,,0.27,weatherlink.com 1.10,2013-02-13 21:49:00,
2013-02-13 16:04:00,46.6,46.0,29.92,WSW,246,0.0,3.0,98,0.00,,,0.27,weatherlink.com 1.10,2013-02-13 22:04:00,
2013-02-13 16:19:00,46.8,46.0,29.93,WNW,297,1.0,4.0,98,0.00,,,0.27,weatherlink.com 1.10,2013-02-13 22:19:00,
2013-02-13 16:34:00,46.8,46.0,29.93,WSW,257,1.0,4.0,98,0.00,,,0.27,weatherlink.com 1.10,2013-02-13 22:34:00,
2013-02-13 16:49:00,46.8,46.0,29.92,NW,316,1.0,4.0,98,0.00,,,0.27,weatherlink.com 1.10,2013-02-13 22:49:00,
2013-02-13 17:04:00,46.7,46.0,29.94,SW,235,1.0,1.0,98,0.00,,,0.27,weatherlink.com 1.10,2013-02-13 23:04:00,
2013-02-13 17:19:00,46.7,46.0,29.94,WSW,252,0.0,1.0,98,0.00,,,0.27,weatherlink.com 1.10,2013-02-13 23:19:00,
2013-02-13 17:34:00,46.4,46.0,29.94,NW,311,0.0,2.0,98,0.00,,,0.27,weatherlink.com 1.10,2013-02-13 23:34:00,
2013-02-13 17:49:00,46.2,46.0,29.94,WNW,288,0.0,1.0,98,0.00,,,0.27,weatherlink.com 1.10,2013-02-13 23:49:00,
2013-02-13 18:04:00,46.2,46.0,29.95,NW,317,0.0,1.0,99,0.00,,,0.27,weatherlink.com 1.10,2013-02-14 00:04:00,
2013-02-13 18:19:00,46.0,46.0,29.96,NNW,331,0.0,1.0,99,0.00,,,0.27,weatherlink.com 1.10,2013-02-14 00:19:00,
2013-02-13 18:34:00,45.9,46.0,29.96,NW,311,0.0,2.0,99,0.00,,,0.27,weatherlink.com 1.10,2013-02-14 00:34:00,
2013-02-13 18:49:00,45.8,46.0,29.96,WSW,249,0.0,2.0,99,0.00,,,0.27,weatherlink.com 1.10,2013-02-14 00:49:00,
2013-02-13 19:04:00,45.7,46.0,29.96,WSW,251,0.0,1.0,99,0.00,,,0.27,weatherlink.com 1.10,2013-02-14 01:04:00,
2013-02-13 19:19:00,45.7,46.0,29.97,NW,322,0.0,1.0,99,0.00,,,0.27,weatherlink.com 1.10,2013-02-14 01:19:00,
2013-02-13 19:34:00,45.5,45.0,29.97,West,274,0.0,1.0,99,0.00,,,0.27,weatherlink.com 1.10,2013-02-14 01:34:00,
2013-02-13 19:49:00,45.3,45.0,29.98,West,274,0.0,1.0,99,0.00,,,0.27,weatherlink.com 1.10,2013-02-14 01:49:00,
2013-02-13 20:04:00,45.2,45.0,29.98,NW,304,0.0,3.0,99,0.00,,,0.27,weatherlink.com 1.10,2013-02-14 02:04:00,
2013-02-13 20:19:00,44.9,45.0,29.98,WNW,288,1.0,3.0,99,0.00,,,0.27,weatherlink.com 1.10,2013-02-14 02:19:00,
2013-02-13 20:34:00,44.6,44.0,29.98,WNW,283,0.0,2.0,98,0.00,,,0.27,weatherlink.com 1.10,2013-02-14 02:34:00,
2013-02-13 20:49:00,44.2,44.0,29.99,WNW,283,0.0,1.0,98,0.00,,,0.27,weatherlink.com 1.10,2013-02-14 02:49:00,
2013-02-13 21:04:00,44.0,43.0,29.98,WNW,287,0.0,4.0,97,0.00,,,0.27,weatherlink.com 1.10,2013-02-14 03:04:00,
2013-02-13 21:19:00,43.7,43.0,29.99,NW,319,1.0,2.0,97,0.00,,,0.27,weatherlink.com 1.10,2013-02-14 03:19:00,
2013-02-13 21:34:00,43.5,43.0,30.00,WNW,298,1.0,3.0,97,0.00,,,0.27,weatherlink.com 1.10,2013-02-14 03:34:00,
2013-02-13 21:49:00,43.2,42.0,30.02,SW,219,0.0,1.0,97,0.00,,,0.27,weatherlink.com 1.10,2013-02-14 03:49:00,
2013-02-13 22:04:00,42.8,42.0,30.02,SW,219,0.0,0.0,98,0.00,,,0.27,weatherlink.com 1.10,2013-02-14 04:04:00,
2013-02-13 22:19:00,42.5,42.0,30.01,SW,221,0.0,0.0,98,0.00,,,0.27,weatherlink.com 1.10,2013-02-14 04:19:00,
2013-02-13 22:49:00,42.2,42.0,30.04,WSW,245,0.0,0.0,98,0.00,,,0.27,weatherlink.com 1.10,2013-02-14 04:49:00,
2013-02-13 23:04:00,41.7,41.0,30.03,WSW,245,0.0,1.0,98,0.01,,,0.28,weatherlink.com 1.10,2013-02-14 05:04:00,
2013-02-13 23:19:00,41.4,41.0,30.03,WNW,300,0.0,1.0,99,0.01,,,0.28,weatherlink.com 1.10,2013-02-14 05:19:00,
2013-02-13 23:34:00,40.9,40.0,30.03,WNW,286,0.0,1.0,98,0.01,,,0.28,weatherlink.com 1.10,2013-02-14 05:34:00,
2013-02-13 23:49:00,40.6,40.0,30.02,WNW,286,0.0,0.0,98,0.01,,,0.28,weatherlink.com 1.10,2013-02-14 05:49:00,